createdAt,value
2022-12-04T00:01:31.300Z,217.20
2022-12-04T00:04:00.862Z,180.23
2022-12-04T00:06:29.542Z,234.90
2022-12-04T00:08:58.418Z,247.68
2022-12-04T00:11:29.428Z,215.38
2022-12-04T00:14:04.585Z,223.23
2022-12-04T00:16:34.422Z,248.52
2022-12-04T00:19:02.126Z,262.67
2022-12-04T00:21:29.698Z,231.68
2022-12-04T00:23:57.678Z,261.42
2022-12-04T00:26:27.935Z,236.15
2022-12-04T00:28:57.607Z,279.67
2022-12-04T00:31:28.246Z,274.27
2022-12-04T00:33:56.469Z,225.80
2022-12-04T00:36:25.906Z,276.13
2022-12-04T00:38:54.455Z,247.63
2022-12-04T00:41:25.515Z,267.40
2022-12-04T00:43:54.285Z,289.02
2022-12-04T00:46:22.495Z,292.52
2022-12-04T00:48:50.966Z,308.20
2022-12-04T00:51:21.876Z,303.70
2022-12-04T00:53:49.946Z,329.42
2022-12-04T00:56:21.615Z,286.20
2022-12-04T00:58:53.835Z,336.70
2022-12-04T01:01:23.001Z,322.02
2022-12-04T01:03:50.967Z,269.08
2022-12-04T01:06:25.045Z,300.60
2022-12-04T01:08:54.326Z,264.20
2022-12-04T01:11:24.506Z,321.30
2022-12-04T01:16:30.816Z,313.17
2022-12-04T01:18:58.805Z,261.77
2022-12-04T01:21:26.565Z,306.35
2022-12-04T01:23:54.715Z,265.83
2022-12-04T01:26:22.390Z,304.48
2022-12-04T01:28:50.016Z,299.15
2022-12-04T01:31:20.302Z,287.98
2022-12-04T01:33:48.740Z,316.65
2022-12-04T01:36:19.215Z,308.73
2022-12-04T01:38:47.285Z,327.52
2022-12-04T01:41:17.095Z,295.92
2022-12-04T01:43:44.745Z,270.15
2022-12-04T01:46:12.902Z,286.50
2022-12-04T01:48:53.835Z,311.88
2022-12-04T01:51:25.776Z,342.63
2022-12-04T01:54:08.215Z,269.52
2022-12-04T01:56:49.585Z,312.17
2022-12-04T01:59:22.585Z,353.45
2022-12-04T02:02:05.574Z,305.48
2022-12-04T02:04:34.524Z,338.63
2022-12-04T02:07:02.215Z,302.20
2022-12-04T02:09:31.318Z,343.88
2022-12-04T02:12:04.925Z,304.42
2022-12-04T02:14:50.686Z,263.88
2022-12-04T02:17:37.134Z,361.52
2022-12-04T02:20:30.325Z,336.38
2022-12-04T02:23:21.264Z,302.92
2022-12-04T02:26:00.626Z,365.73
2022-12-04T02:28:56.535Z,308.05
2022-12-04T02:31:38.745Z,389.27
2022-12-04T02:34:13.518Z,407.42
2022-12-04T02:36:50.522Z,399.48
2022-12-04T02:39:27.910Z,326.20
2022-12-04T02:42:13.119Z,428.38
2022-12-04T02:44:45.584Z,360.00
2022-12-04T02:47:16.683Z,392.77
2022-12-04T02:49:53.721Z,419.23
2022-12-04T02:52:24.889Z,341.25
2022-12-04T02:55:04.039Z,400.25
2022-12-04T02:57:39.112Z,355.02
2022-12-04T03:00:09.173Z,414.27
2022-12-04T03:05:18.552Z,399.25
2022-12-04T03:07:51.845Z,350.23
2022-12-04T03:10:24.938Z,320.65
2022-12-04T03:13:02.910Z,384.70
2022-12-04T03:15:35.661Z,353.33
2022-12-04T03:18:31.501Z,341.13
2022-12-04T03:21:05.441Z,347.05
2022-12-04T03:23:44.415Z,285.80
2022-12-04T03:26:24.734Z,309.90
2022-12-04T03:29:01.114Z,368.52
2022-12-04T03:31:39.577Z,377.95
2022-12-04T03:34:09.186Z,367.48
2022-12-04T03:36:50.233Z,375.63
2022-12-04T03:39:43.731Z,335.63
2022-12-04T03:42:23.463Z,331.67
2022-12-04T03:45:02.195Z,336.20
2022-12-04T03:47:42.895Z,376.23
2022-12-04T03:50:38.176Z,364.35
2022-12-04T03:53:30.641Z,377.27
2022-12-04T03:56:13.910Z,327.58
2022-12-04T03:58:47.042Z,339.00
2022-12-04T04:01:17.543Z,332.20
2022-12-04T04:03:52.273Z,322.67
2022-12-04T04:06:24.392Z,346.83
2022-12-04T04:08:57.314Z,361.08
2022-12-04T04:11:32.098Z,295.17
2022-12-04T04:14:27.714Z,285.13
2022-12-04T04:17:21.086Z,301.77
2022-12-04T04:20:12.713Z,371.83
2022-12-04T04:22:59.362Z,361.17
2022-12-04T04:25:28.844Z,294.08
2022-12-04T04:27:58.127Z,287.73
2022-12-04T04:30:26.900Z,300.25
2022-12-04T04:33:11.807Z,325.00
2022-12-04T04:36:02.762Z,241.70
2022-12-04T04:38:41.780Z,249.95
2022-12-04T04:41:14.046Z,242.82
2022-12-04T04:43:54.009Z,215.00
2022-12-04T04:46:32.359Z,218.60
2022-12-04T04:49:04.311Z,200.48
2022-12-04T04:51:33.935Z,228.85
2022-12-04T04:54:04.827Z,172.73
2022-12-04T04:56:32.239Z,200.90
2022-12-04T04:58:59.398Z,174.68
2022-12-04T05:01:28.989Z,214.00
2022-12-04T05:03:56.320Z,183.90
2022-12-04T05:06:23.627Z,176.70
2022-12-04T05:08:51.078Z,188.70
2022-12-04T05:11:18.466Z,191.50
2022-12-04T05:13:45.642Z,234.18
2022-12-04T05:16:14.862Z,184.98
2022-12-04T05:19:02.743Z,191.10
2022-12-04T05:21:30.282Z,204.18
2022-12-04T05:23:57.460Z,162.07
2022-12-04T05:26:25.065Z,179.63
2022-12-04T05:28:52.278Z,181.65
2022-12-04T05:31:19.805Z,192.30
2022-12-04T05:33:47.033Z,195.10
2022-12-04T05:36:14.210Z,179.90
2022-12-04T05:38:41.634Z,184.68
2022-12-04T05:41:09.296Z,217.65
2022-12-04T05:43:37.552Z,177.45
2022-12-04T05:46:06.652Z,217.40
2022-12-04T05:48:35.843Z,198.00
2022-12-04T05:51:10.473Z,213.93
2022-12-04T05:53:38.342Z,240.00
2022-12-04T05:56:07.666Z,191.55
2022-12-04T05:58:36.957Z,218.63
2022-12-04T06:01:12.215Z,235.03
2022-12-04T06:03:39.566Z,239.52
2022-12-04T06:06:20.979Z,257.42
2022-12-04T06:08:49.747Z,201.35
2022-12-04T06:11:21.189Z,230.73
2022-12-04T06:13:48.460Z,219.18
2022-12-04T06:16:22.146Z,156.30
2022-12-04T06:18:54.014Z,211.70
2022-12-04T06:21:22.779Z,214.63
2022-12-04T06:23:50.778Z,217.55
2022-12-04T06:26:19.869Z,223.68
2022-12-04T06:28:47.194Z,184.73
2022-12-04T06:31:16.655Z,191.07
2022-12-04T06:33:44.004Z,241.52
2022-12-04T06:36:15.125Z,209.98
2022-12-04T06:38:43.113Z,229.68
2022-12-04T06:41:15.528Z,229.27
2022-12-04T06:43:43.329Z,247.77
2022-12-04T06:46:12.950Z,203.05
2022-12-04T06:48:40.802Z,163.93
2022-12-04T06:51:11.877Z,197.35
2022-12-04T06:53:40.011Z,209.18
2022-12-04T06:56:09.941Z,189.27
2022-12-04T06:58:37.580Z,182.00
2022-12-04T07:01:10.652Z,222.32
2022-12-04T07:03:39.740Z,209.95
2022-12-04T07:06:15.625Z,172.68
2022-12-04T07:08:44.884Z,195.10
2022-12-04T07:11:13.080Z,184.13
2022-12-04T07:13:40.637Z,162.02
2022-12-04T07:16:10.959Z,187.60
2022-12-04T07:18:38.251Z,186.65
2022-12-04T07:21:10.873Z,190.98
2022-12-04T07:23:38.316Z,195.48
2022-12-04T07:26:10.467Z,197.63
2022-12-04T07:28:39.649Z,204.27
2022-12-04T07:31:13.516Z,190.82
2022-12-04T07:33:41.196Z,232.05
2022-12-04T07:36:11.921Z,215.80
2022-12-04T07:38:39.261Z,206.65
2022-12-04T07:41:07.611Z,203.13
2022-12-04T07:43:35.031Z,196.38
2022-12-04T07:46:14.018Z,223.80
2022-12-04T07:48:41.617Z,229.10
2022-12-04T07:51:11.888Z,228.63
2022-12-04T07:53:40.263Z,190.95
2022-12-04T07:56:08.136Z,207.40
2022-12-04T07:58:36.029Z,185.38
2022-12-04T08:01:23.014Z,212.70
2022-12-04T08:03:52.773Z,189.90
2022-12-04T08:06:22.612Z,200.55
2022-12-04T08:08:50.504Z,179.52
2022-12-04T08:11:21.468Z,179.40
2022-12-04T08:13:53.721Z,192.85
2022-12-04T08:16:20.952Z,187.93
2022-12-04T08:18:48.822Z,176.35
2022-12-04T08:21:20.777Z,180.98
2022-12-04T08:23:50.900Z,181.23
2022-12-04T08:28:46.913Z,167.85
2022-12-04T08:31:21.013Z,185.95
2022-12-04T08:33:49.758Z,183.98
2022-12-04T08:36:19.607Z,186.90
2022-12-04T08:38:48.786Z,176.95
2022-12-04T08:41:18.545Z,203.68
2022-12-04T08:43:45.878Z,192.90
2022-12-04T08:46:16.336Z,181.02
2022-12-04T08:48:44.572Z,177.73
2022-12-04T08:51:18.119Z,176.15
2022-12-04T08:53:45.777Z,202.27
2022-12-04T08:56:13.756Z,193.70
2022-12-04T08:58:41.066Z,177.18
2022-12-04T09:01:11.489Z,186.23
2022-12-04T09:03:39.620Z,182.05
2022-12-04T09:06:08.093Z,155.40
2022-12-04T09:08:36.900Z,185.50
2022-12-04T09:11:16.508Z,190.77
2022-12-04T09:13:44.911Z,193.48
2022-12-04T09:16:15.076Z,163.27
2022-12-04T09:21:12.176Z,177.35
2022-12-04T09:23:40.331Z,158.40
2022-12-04T09:26:19.227Z,156.85
2022-12-04T09:28:48.331Z,167.70
2022-12-04T09:31:16.326Z,162.77
2022-12-04T09:33:43.905Z,174.73
2022-12-04T09:36:18.210Z,158.02
2022-12-04T09:38:48.278Z,162.43
2022-12-04T09:41:36.695Z,137.00
2022-12-04T09:44:29.459Z,145.18
2022-12-04T09:47:23.726Z,136.88
2022-12-04T09:49:59.777Z,155.98
2022-12-04T09:52:56.448Z,141.38
2022-12-04T09:55:39.474Z,125.10
2022-12-04T09:58:18.078Z,140.05
2022-12-04T10:00:50.221Z,130.32
2022-12-04T10:03:20.293Z,116.50
2022-12-04T10:06:06.125Z,124.32
2022-12-04T10:08:40.707Z,141.05
2022-12-04T10:11:14.615Z,141.90
2022-12-04T10:13:48.242Z,145.75
2022-12-04T10:16:25.511Z,115.00
2022-12-04T10:19:11.118Z,125.38
2022-12-04T10:21:53.324Z,129.10
2022-12-04T10:24:43.373Z,126.88
2022-12-04T10:27:20.410Z,130.00
2022-12-04T10:29:50.892Z,124.85
2022-12-04T10:32:23.015Z,107.95
2022-12-04T10:34:54.455Z,134.82
2022-12-04T10:37:23.117Z,127.22
2022-12-04T10:40:01.151Z,130.82
2022-12-04T10:42:53.925Z,130.77
2022-12-04T10:45:23.481Z,118.60
2022-12-04T10:47:53.193Z,118.18
2022-12-04T10:50:24.751Z,114.30
2022-12-04T10:52:52.359Z,135.55
2022-12-04T10:55:38.581Z,137.02
2022-12-04T10:58:18.907Z,133.90
2022-12-04T11:01:01.212Z,120.85
2022-12-04T11:03:29.829Z,122.65
2022-12-04T11:06:06.834Z,131.43
2022-12-04T11:08:39.140Z,115.60
2022-12-04T11:11:13.517Z,120.13
2022-12-04T11:13:41.954Z,113.43
2022-12-04T11:16:29.448Z,123.78
2022-12-04T11:18:57.135Z,114.03
2022-12-04T11:21:29.869Z,117.65
2022-12-04T11:23:59.208Z,114.60
2022-12-04T11:26:35.685Z,113.95
2022-12-04T11:29:09.134Z,106.68
2022-12-04T11:31:36.692Z,101.10
2022-12-04T11:34:08.974Z,122.25
2022-12-04T11:36:43.766Z,136.90
2022-12-04T11:39:13.737Z,103.10
2022-12-04T11:41:41.218Z,103.78
2022-12-04T11:44:52.615Z,128.27
2022-12-04T11:47:22.142Z,115.30
2022-12-04T11:50:37.389Z,117.95
2022-12-04T11:53:23.467Z,113.55
2022-12-04T11:56:14.630Z,158.05
2022-12-04T11:59:03.616Z,117.60
2022-12-04T12:01:43.451Z,97.30
2022-12-04T12:04:29.091Z,106.13
2022-12-04T12:07:05.467Z,115.95
2022-12-04T12:10:00.194Z,104.10
2022-12-04T12:12:51.977Z,120.13
2022-12-04T12:15:26.977Z,101.07
2022-12-04T12:18:16.552Z,125.32
2022-12-04T12:21:03.346Z,106.63
2022-12-04T12:23:47.693Z,107.60
2022-12-04T12:26:17.501Z,101.72
2022-12-04T12:29:06.006Z,106.10
2022-12-04T12:32:04.626Z,98.07
2022-12-04T12:34:34.833Z,102.50
2022-12-04T12:39:51.978Z,110.15
2022-12-04T12:42:28.372Z,117.18
2022-12-04T12:45:29.841Z,102.47
2022-12-04T12:48:05.501Z,104.93
2022-12-04T12:50:43.928Z,109.28
2022-12-04T12:53:22.157Z,130.32
2022-12-04T12:56:13.211Z,111.68
2022-12-04T12:58:46.299Z,118.82
2022-12-04T13:01:18.416Z,101.40
2022-12-04T13:03:57.682Z,115.00
2022-12-04T13:06:32.018Z,117.78
2022-12-04T13:09:32.047Z,115.80
2022-12-04T13:12:09.385Z,102.32
2022-12-04T13:14:37.460Z,113.60
2022-12-04T13:17:25.696Z,115.57
2022-12-04T13:19:56.875Z,108.05
2022-12-04T13:22:32.804Z,114.75
2022-12-04T13:25:41.505Z,103.95
2022-12-04T13:28:36.612Z,126.57
2022-12-04T13:31:19.527Z,108.95
2022-12-04T13:34:11.170Z,115.40
2022-12-04T13:36:53.569Z,117.43
2022-12-04T13:39:37.317Z,115.18
2022-12-04T13:42:07.029Z,107.35
2022-12-04T13:44:36.364Z,103.00
2022-12-04T13:47:06.592Z,120.07
2022-12-04T13:49:36.832Z,136.10
2022-12-04T13:54:35.618Z,110.53
2022-12-04T13:59:45.344Z,123.45
2022-12-04T14:02:32.392Z,136.35
2022-12-04T14:05:04.599Z,127.18
2022-12-04T14:07:37.333Z,116.22
2022-12-04T14:10:09.439Z,112.35
2022-12-04T14:12:40.459Z,118.38
2022-12-04T14:15:30.275Z,129.40
2022-12-04T14:18:03.205Z,125.13
2022-12-04T14:20:33.002Z,122.43
2022-12-04T14:23:27.379Z,128.40
2022-12-04T14:25:57.330Z,147.23
2022-12-04T14:28:42.788Z,134.38
2022-12-04T14:31:28.471Z,148.10
2022-12-04T14:34:02.811Z,128.40
2022-12-04T14:36:46.184Z,140.77
2022-12-04T14:39:24.998Z,143.15
2022-12-04T14:41:58.992Z,152.63
2022-12-04T14:44:30.996Z,139.65
2022-12-04T14:47:09.514Z,144.30
2022-12-04T14:49:45.547Z,138.98
2022-12-04T14:52:24.768Z,142.50
2022-12-04T14:55:41.311Z,133.27
2022-12-04T14:58:34.987Z,142.23
2022-12-04T15:01:22.757Z,126.88
2022-12-04T15:03:56.432Z,132.35
2022-12-04T15:06:30.315Z,140.57
2022-12-04T15:09:21.449Z,125.00
2022-12-04T15:12:11.762Z,143.82
2022-12-04T15:17:11.765Z,145.25
2022-12-04T15:22:16.456Z,117.10
2022-12-04T15:24:45.242Z,114.05
2022-12-04T15:27:14.560Z,116.35
2022-12-04T15:29:48.852Z,114.33
2022-12-04T15:32:20.242Z,101.25
2022-12-04T15:35:00.610Z,116.95
2022-12-04T15:37:33.183Z,108.03
2022-12-04T15:40:06.129Z,103.13
2022-12-04T15:42:33.892Z,102.53
2022-12-04T15:45:22.103Z,107.53
2022-12-04T15:47:49.273Z,94.50
2022-12-04T15:50:16.578Z,112.70
2022-12-04T15:52:56.241Z,107.50
2022-12-04T15:55:26.103Z,96.28
2022-12-04T15:58:09.603Z,100.78
2022-12-04T16:00:39.610Z,94.35
2022-12-04T16:03:23.547Z,104.03
2022-12-04T16:06:01.549Z,93.22
2022-12-04T16:08:34.221Z,99.70
2022-12-04T16:11:23.441Z,97.05
2022-12-04T16:14:08.993Z,102.40
2022-12-04T16:16:42.410Z,104.63
2022-12-04T16:19:18.789Z,95.70
2022-12-04T16:21:46.951Z,111.32
2022-12-04T16:24:14.492Z,94.97
2022-12-04T16:26:42.109Z,100.88
2022-12-04T16:29:09.538Z,97.40
2022-12-04T16:31:38.537Z,108.43
2022-12-04T16:34:05.790Z,89.87
2022-12-04T16:36:33.325Z,101.45
2022-12-04T16:39:00.983Z,117.53
2022-12-04T16:41:28.381Z,113.80
2022-12-04T16:43:58.545Z,103.82
2022-12-04T16:48:54.659Z,92.70
2022-12-04T16:51:26.963Z,112.95
2022-12-04T16:53:55.311Z,114.10
2022-12-04T16:56:23.216Z,115.40
2022-12-04T16:58:50.343Z,110.75
2022-12-04T17:01:31.778Z,106.55
2022-12-04T17:03:58.841Z,113.07
2022-12-04T17:06:25.914Z,120.97
2022-12-04T17:08:54.371Z,117.45
2022-12-04T17:11:21.428Z,129.02
2022-12-04T17:13:48.721Z,109.72
2022-12-04T17:16:19.593Z,107.82
2022-12-04T17:18:47.181Z,115.13
2022-12-04T17:21:15.133Z,117.95
2022-12-04T17:23:42.670Z,103.40
2022-12-04T17:26:12.491Z,111.28
2022-12-04T17:28:40.239Z,122.50
2022-12-04T17:31:16.706Z,110.15
2022-12-04T17:33:44.558Z,98.28
2022-12-04T17:36:13.754Z,97.97
2022-12-04T17:38:41.104Z,106.45
2022-12-04T17:41:09.998Z,108.22
2022-12-04T17:43:37.251Z,112.30
2022-12-04T17:46:10.289Z,123.00
2022-12-04T17:48:37.401Z,108.40
2022-12-04T17:51:13.618Z,94.55
2022-12-04T17:53:40.990Z,97.25
2022-12-04T17:56:12.068Z,95.63
2022-12-04T17:58:39.480Z,91.88
2022-12-04T18:01:13.103Z,100.57
2022-12-04T18:03:40.442Z,102.40
2022-12-04T18:06:23.887Z,101.03
2022-12-04T18:08:51.570Z,112.93
2022-12-04T18:11:21.018Z,98.90
2022-12-04T18:13:49.558Z,95.07
2022-12-04T18:16:16.733Z,92.95
2022-12-04T18:18:47.251Z,87.63
2022-12-04T18:21:15.413Z,101.50
2022-12-04T18:23:46.143Z,98.47
2022-12-04T18:26:15.771Z,80.38
2022-12-04T18:28:43.640Z,91.63
2022-12-04T18:31:11.680Z,89.05
2022-12-04T18:33:40.888Z,82.95
2022-12-04T18:36:12.310Z,88.85
2022-12-04T18:38:39.422Z,81.72
2022-12-04T18:41:09.189Z,94.20
2022-12-04T18:43:39.961Z,86.68
2022-12-04T18:46:10.201Z,82.57
2022-12-04T18:51:29.750Z,81.32
2022-12-04T18:54:02.300Z,77.40
2022-12-04T18:56:30.782Z,83.65
2022-12-04T18:59:10.458Z,78.63
2022-12-04T19:01:38.737Z,97.95
2022-12-04T19:04:07.814Z,90.70
2022-12-04T19:06:40.504Z,95.45
2022-12-04T19:09:11.288Z,78.22
2022-12-04T19:11:39.291Z,80.00
2022-12-04T19:14:16.060Z,73.50
2022-12-04T19:16:48.270Z,72.80
2022-12-04T19:19:15.765Z,77.68
2022-12-04T19:21:43.289Z,83.10
2022-12-04T19:24:10.928Z,80.28
2022-12-04T19:26:38.316Z,89.32
2022-12-04T19:29:07.145Z,85.03
2022-12-04T19:31:38.031Z,70.35
2022-12-04T19:34:06.418Z,79.05
2022-12-04T19:36:35.104Z,73.05
2022-12-04T19:39:03.694Z,78.40
2022-12-04T19:41:34.478Z,76.78
2022-12-04T19:44:14.629Z,71.35
2022-12-04T19:46:49.400Z,72.30
2022-12-04T19:49:16.599Z,75.85
2022-12-04T19:51:43.891Z,70.97
2022-12-04T19:54:13.467Z,77.22
2022-12-04T19:56:40.680Z,69.68
2022-12-04T19:59:08.657Z,77.35
2022-12-04T20:01:36.209Z,73.47
2022-12-04T20:04:05.979Z,78.63
2022-12-04T20:06:39.546Z,74.63
2022-12-04T20:09:11.116Z,78.70
2022-12-04T20:11:38.652Z,73.80
2022-12-04T20:14:07.723Z,70.68
2022-12-04T20:16:35.706Z,75.40
2022-12-04T20:19:04.816Z,77.78
2022-12-04T20:21:32.766Z,72.55
2022-12-04T20:24:05.528Z,75.20
2022-12-04T20:26:38.436Z,75.10
2022-12-04T20:29:07.625Z,77.57
2022-12-04T20:31:37.401Z,81.68
2022-12-04T20:34:06.783Z,74.70
2022-12-04T20:36:39.812Z,87.50
2022-12-04T20:39:07.849Z,78.53
2022-12-04T20:41:35.670Z,83.68
2022-12-04T20:44:05.352Z,69.50
2022-12-04T20:46:37.647Z,78.95
2022-12-04T20:49:09.038Z,72.82
2022-12-04T20:51:41.731Z,80.85
2022-12-04T20:54:11.261Z,79.95
2022-12-04T20:56:38.900Z,81.45
2022-12-04T20:59:08.592Z,74.65
2022-12-04T21:01:36.938Z,69.35
2022-12-04T21:04:05.981Z,86.13
2022-12-04T21:06:38.557Z,70.30
2022-12-04T21:09:08.368Z,88.65
2022-12-04T21:11:40.823Z,91.03
2022-12-04T21:14:30.482Z,77.53
2022-12-04T21:16:58.068Z,78.63
2022-12-04T21:19:26.228Z,76.20
2022-12-04T21:21:53.811Z,78.97
2022-12-04T21:24:23.675Z,72.72
2022-12-04T21:26:50.858Z,66.65
2022-12-04T21:29:17.878Z,73.85
2022-12-04T21:31:45.158Z,64.40
2022-12-04T21:34:14.636Z,76.45
2022-12-04T21:36:42.133Z,70.40
2022-12-04T21:39:09.451Z,70.35
2022-12-04T21:41:55.386Z,81.70
2022-12-04T21:44:22.539Z,78.32
2022-12-04T21:46:50.515Z,83.18
2022-12-04T21:49:19.370Z,85.07
2022-12-04T21:52:02.343Z,90.82
2022-12-04T21:54:30.094Z,90.15
2022-12-04T21:56:57.912Z,97.63
2022-12-04T21:59:26.241Z,94.72
2022-12-04T22:01:54.036Z,95.60
2022-12-04T22:04:21.759Z,108.15
2022-12-04T22:06:49.080Z,107.05
2022-12-04T22:09:16.909Z,104.30
2022-12-04T22:11:44.719Z,115.70
2022-12-04T22:14:12.604Z,125.90
2022-12-04T22:16:42.770Z,103.47
2022-12-04T22:19:11.559Z,102.47
2022-12-04T22:21:39.218Z,111.05
2022-12-04T22:24:06.869Z,96.60
2022-12-04T22:26:33.985Z,95.03
2022-12-04T22:29:01.069Z,89.22
2022-12-04T22:31:30.195Z,106.97
2022-12-04T22:33:59.599Z,120.20
2022-12-04T22:36:32.343Z,108.85
2022-12-04T22:39:15.473Z,109.57
2022-12-04T22:41:42.612Z,95.78
2022-12-04T22:44:09.600Z,103.43
2022-12-04T22:46:36.804Z,97.63
2022-12-04T22:49:03.852Z,107.60
2022-12-04T22:51:31.029Z,90.50
2022-12-04T22:53:58.714Z,91.10
2022-12-04T22:56:31.752Z,93.88
2022-12-04T22:59:00.068Z,95.53
2022-12-04T23:01:29.348Z,99.72
2022-12-04T23:03:57.248Z,90.93
2022-12-04T23:06:26.932Z,101.63
2022-12-04T23:09:05.958Z,99.75
2022-12-04T23:11:33.120Z,91.20
2022-12-04T23:14:03.010Z,98.00
2022-12-04T23:16:31.897Z,93.63
2022-12-04T23:18:59.711Z,92.55
2022-12-04T23:21:27.593Z,94.60
2022-12-04T23:23:55.983Z,111.53
2022-12-04T23:26:25.960Z,93.70
2022-12-04T23:28:53.033Z,101.20
2022-12-04T23:31:20.189Z,122.00
2022-12-04T23:33:47.293Z,116.82
2022-12-04T23:36:15.623Z,104.68
2022-12-04T23:38:44.184Z,117.45
2022-12-04T23:41:14.726Z,93.68
2022-12-04T23:43:43.088Z,99.88
2022-12-04T23:46:11.952Z,94.78
2022-12-04T23:48:40.902Z,90.32
2022-12-04T23:51:09.282Z,81.30
2022-12-04T23:53:36.870Z,75.70
2022-12-04T23:56:06.827Z,76.40
2022-12-04T23:58:34.624Z,88.45
